Time;durP1;ratioP1;P1;durP2;ratioP2;P2;SDS_P1;SDS_P2;PMS_P1;PMS_P2;Temp;Humidity;BMP_temperature;BMP_pressure;BME280_temperature;BME280_humidity;BME280_pressure;Samples;Min_cycle;Max_cycle;Signal;HPM_P1;HPM_P2
2022/05/16 00:00:17;;;;;;;0.85;0.50;;;;;;;;;;5132322;28;20125;-55
2022/05/16 00:02:44;;;;;;;3.30;0.60;;;;;;;;;;5131865;28;20047;-54
2022/05/16 00:05:13;;;;;;;1.23;0.60;;;;;;;;;;5131734;28;20047;-54
2022/05/16 00:07:40;;;;;;;0.60;0.60;;;;;;;;;;5132011;28;20100;-54
2022/05/16 00:10:09;;;;;;;0.60;0.50;;;;;;;;;;5132108;28;20039;-54
2022/05/16 00:12:37;;;;;;;0.90;0.60;;;;;;;;;;5131794;28;20046;-56
2022/05/16 00:15:07;;;;;;;0.57;0.40;;;;;;;;;;5131559;28;20049;-55
2022/05/16 00:17:35;;;;;;;0.55;0.47;;;;;;;;;;5113544;28;20040;-54
2022/05/16 00:20:03;;;;;;;0.60;0.50;;;;;;;;;;5131616;28;20505;-56
2022/05/16 00:22:31;;;;;;;0.90;0.50;;;;;;;;;;5131311;27;20075;-56
2022/05/16 00:24:59;;;;;;;0.77;0.60;;;;;;;;;;5131684;27;20092;-54
2022/05/16 00:27:26;;;;;;;0.60;0.60;;;;;;;;;;5135682;27;20043;-57
2022/05/16 00:29:54;;;;;;;0.57;0.57;;;;;;;;;;5116919;27;20039;-55
2022/05/16 00:32:23;;;;;;;0.60;0.60;;;;;;;;;;5135647;27;20036;-54
2022/05/16 00:34:51;;;;;;;0.90;0.50;;;;;;;;;;5135566;27;20383;-55
2022/05/16 00:37:18;;;;;;;0.85;0.50;;;;;;;;;;5135544;27;20100;-55
2022/05/16 00:39:45;;;;;;;0.60;0.47;;;;;;;;;;5135190;27;20035;-55
2022/05/16 00:42:13;;;;;;;0.45;0.45;;;;;;;;;;5135626;27;20050;-56
2022/05/16 00:44:40;;;;;;;0.65;0.50;;;;;;;;;;5135398;27;20043;-54
2022/05/16 00:47:08;;;;;;;0.80;0.57;;;;;;;;;;5135568;27;20092;-53
2022/05/16 00:49:41;;;;;;;0.50;0.50;;;;;;;;;;5134988;27;20045;-55
2022/05/16 00:52:23;;;;;;;0.43;0.40;;;;;;;;;;5135250;27;20039;-56
2022/05/16 00:54:52;;;;;;;0.93;0.50;;;;;;;;;;5135086;27;20043;-54
2022/05/16 00:57:23;;;;;;;0.40;0.40;;;;;;;;;;5134872;27;20039;-56
2022/05/16 00:59:55;;;;;;;0.50;0.50;;;;;;;;;;5135095;27;20059;-54
2022/05/16 01:05:12;;;;;;;1.48;0.50;;;;;;;;;;5135103;27;20035;-57
2022/05/16 01:07:43;;;;;;;1.08;0.50;;;;;;;;;;5135043;27;20039;-55
2022/05/16 01:10:17;;;;;;;0.65;0.50;;;;;;;;;;5135026;27;20497;-56
2022/05/16 01:12:49;;;;;;;0.77;0.60;;;;;;;;;;5134820;27;20047;-54
2022/05/16 01:15:42;;;;;;;0.93;0.50;;;;;;;;;;5134460;27;20574;-56
2022/05/16 01:18:14;;;;;;;0.90;0.40;;;;;;;;;;5134838;27;20027;-57
2022/05/16 01:20:57;;;;;;;2.45;0.50;;;;;;;;;;5134950;27;20039;-54
2022/05/16 01:23:26;;;;;;;0.93;0.40;;;;;;;;;;5134634;27;20035;-55
2022/05/16 01:25:54;;;;;;;0.60;0.40;;;;;;;;;;5134511;27;20031;-54
2022/05/16 01:28:24;;;;;;;1.83;0.60;;;;;;;;;;5134272;27;20027;-56
2022/05/16 01:30:54;;;;;;;0.90;0.50;;;;;;;;;;5134354;27;20034;-54
2022/05/16 01:33:25;;;;;;;0.60;0.50;;;;;;;;;;5134496;27;20127;-56
2022/05/16 01:35:53;;;;;;;0.90;0.60;;;;;;;;;;5134255;27;20045;-54
2022/05/16 01:38:23;;;;;;;1.70;0.50;;;;;;;;;;5133183;27;20107;-56
2022/05/16 01:40:55;;;;;;;0.43;0.32;;;;;;;;;;5134101;27;20035;-53
2022/05/16 01:43:25;;;;;;;0.43;0.43;;;;;;;;;;5134361;27;20108;-56
2022/05/16 01:45:52;;;;;;;0.45;0.40;;;;;;;;;;5134161;27;20043;-54
2022/05/16 01:48:20;;;;;;;0.50;0.50;;;;;;;;;;5134069;27;20509;-56
2022/05/16 01:50:49;;;;;;;0.52;0.50;;;;;;;;;;5133947;27;20130;-54
2022/05/16 01:53:18;;;;;;;0.60;0.50;;;;;;;;;;5133345;27;20035;-56
2022/05/16 01:55:45;;;;;;;0.73;0.43;;;;;;;;;;5134072;27;20459;-53
2022/05/16 01:58:12;;;;;;;1.00;0.75;;;;;;;;;;5133985;27;20039;-56
2022/05/16 02:00:40;;;;;;;0.65;0.30;;;;;;;;;;5134176;27;20378;-53
2022/05/16 02:03:07;;;;;;;11.45;6.53;;;;;;;;;;5129510;27;20036;-58
2022/05/16 02:05:35;;;;;;;26.60;12.15;;;;;;;;;;5112820;28;20437;-54
2022/05/16 02:08:02;;;;;;;5.43;2.90;;;;;;;;;;5113117;28;20951;-56
2022/05/16 02:10:30;;;;;;;0.95;0.50;;;;;;;;;;5113005;28;20509;-54
2022/05/16 02:12:58;;;;;;;0.38;0.38;;;;;;;;;;5112837;28;20162;-53
2022/05/16 02:15:28;;;;;;;1.00;0.38;;;;;;;;;;5112716;28;20055;-56
2022/05/16 02:17:56;;;;;;;0.25;0.25;;;;;;;;;;5112926;28;20043;-54
2022/05/16 02:20:24;;;;;;;0.80;0.60;;;;;;;;;;5112958;28;20118;-55
2022/05/16 02:25:44;;;;;;;0.93;0.47;;;;;;;;;;5122027;27;20047;-55
2022/05/16 02:28:14;;;;;;;0.52;0.50;;;;;;;;;;5133491;27;20039;-56
2022/05/16 02:30:47;;;;;;;0.60;0.40;;;;;;;;;;5133098;27;20050;-52
2022/05/16 02:33:16;;;;;;;1.25;0.50;;;;;;;;;;5133073;27;20039;-55
2022/05/16 02:35:45;;;;;;;0.80;0.60;;;;;;;;;;5114659;27;20128;-55
2022/05/16 02:38:18;;;;;;;0.82;0.50;;;;;;;;;;5133219;27;20043;-54
2022/05/16 02:40:47;;;;;;;0.82;0.40;;;;;;;;;;5132964;27;20043;-58
2022/05/16 02:43:14;;;;;;;0.30;0.30;;;;;;;;;;5133060;27;20035;-54
2022/05/16 02:45:42;;;;;;;108.78;41.22;;;;;;;;;;5133204;27;20035;-58
2022/05/16 02:48:09;;;;;;;15.25;6.32;;;;;;;;;;5132928;27;20039;-56
2022/05/16 02:50:36;;;;;;;0.90;0.50;;;;;;;;;;5132709;27;20505;-53
2022/05/16 02:53:03;;;;;;;0.88;0.52;;;;;;;;;;5132543;27;20051;-55
2022/05/16 02:55:33;;;;;;;0.73;0.40;;;;;;;;;;5132849;27;20050;-53
2022/05/16 02:58:00;;;;;;;2.10;0.55;;;;;;;;;;5132607;27;20043;-56
2022/05/16 03:00:28;;;;;;;0.93;0.43;;;;;;;;;;5132579;27;20039;-56
2022/05/16 03:02:55;;;;;;;1.13;0.45;;;;;;;;;;5114164;27;20575;-55
2022/05/16 03:05:22;;;;;;;0.90;0.43;;;;;;;;;;5132662;27;20039;-54
2022/05/16 03:07:49;;;;;;;0.50;0.47;;;;;;;;;;5132564;27;20050;-55
2022/05/16 03:10:17;;;;;;;0.65;0.50;;;;;;;;;;5132431;27;20043;-55
2022/05/16 03:12:45;;;;;;;52.67;21.65;;;;;;;;;;5132525;27;20424;-55
2022/05/16 03:15:15;;;;;;;16.00;6.57;;;;;;;;;;5132239;27;20043;-55
2022/05/16 03:17:43;;;;;;;2.63;0.80;;;;;;;;;;5132328;27;20039;-54
2022/05/16 03:20:13;;;;;;;0.88;0.50;;;;;;;;;;5132663;27;20042;-54
2022/05/16 03:22:41;;;;;;;1.10;0.50;;;;;;;;;;5132616;27;20097;-56
2022/05/16 03:25:09;;;;;;;0.88;0.52;;;;;;;;;;5131409;27;20051;-53
2022/05/16 03:27:36;;;;;;;0.80;0.50;;;;;;;;;;5132208;27;20040;-53
2022/05/16 03:30:07;;;;;;;1.30;0.55;;;;;;;;;;5132213;27;20043;-53
2022/05/16 03:32:37;;;;;;;0.77;0.68;;;;;;;;;;5091759;27;20047;-54
2022/05/16 03:35:06;;;;;;;0.68;0.50;;;;;;;;;;5094039;28;20051;-54
2022/05/16 03:37:34;;;;;;;0.50;0.50;;;;;;;;;;5111488;28;20032;-55
2022/05/16 03:42:47;;;;;;;1.08;0.47;;;;;;;;;;5111526;28;20048;-54
2022/05/16 03:45:16;;;;;;;0.50;0.50;;;;;;;;;;5111592;28;20105;-55
2022/05/16 03:47:44;;;;;;;0.60;0.55;;;;;;;;;;5111579;28;20039;-54
2022/05/16 03:50:12;;;;;;;1.08;0.60;;;;;;;;;;5111570;28;20043;-56
2022/05/16 03:52:40;;;;;;;6.20;2.97;;;;;;;;;;5110403;28;20122;-51
2022/05/16 03:55:13;;;;;;;10.50;4.72;;;;;;;;;;5111629;28;20039;-54
2022/05/16 03:57:43;;;;;;;0.70;0.50;;;;;;;;;;5093718;28;20397;-55
2022/05/16 04:00:13;;;;;;;1.05;0.63;;;;;;;;;;5111823;28;20050;-55
2022/05/16 04:02:41;;;;;;;1.05;0.50;;;;;;;;;;5115963;28;20039;-55
2022/05/16 04:05:10;;;;;;;0.55;0.47;;;;;;;;;;5115848;28;20428;-55
2022/05/16 04:07:38;;;;;;;0.70;0.57;;;;;;;;;;5115910;28;20035;-54
2022/05/16 04:10:08;;;;;;;1.15;0.52;;;;;;;;;;5115421;28;20032;-53
2022/05/16 04:12:36;;;;;;;1.77;0.60;;;;;;;;;;5115844;28;20432;-57
2022/05/16 04:15:05;;;;;;;0.82;0.52;;;;;;;;;;5115717;28;20058;-56
2022/05/16 04:17:33;;;;;;;0.50;0.50;;;;;;;;;;5115273;28;20028;-55
2022/05/16 04:20:01;;;;;;;1.17;0.50;;;;;;;;;;5113890;28;20499;-56
2022/05/16 04:22:30;;;;;;;1.75;0.57;;;;;;;;;;5115414;28;20089;-53
2022/05/16 04:24:58;;;;;;;0.90;0.60;;;;;;;;;;5115085;28;20035;-51
2022/05/16 04:27:26;;;;;;;0.93;0.50;;;;;;;;;;5115047;28;20105;-55
2022/05/16 04:29:54;;;;;;;0.60;0.50;;;;;;;;;;5113699;28;20052;-55
2022/05/16 04:32:21;;;;;;;0.60;0.50;;;;;;;;;;5114815;28;20110;-56
2022/05/16 04:34:48;;;;;;;0.40;0.40;;;;;;;;;;5115169;27;20436;-54
2022/05/16 04:37:16;;;;;;;1.60;0.50;;;;;;;;;;5114882;28;20032;-53
2022/05/16 04:39:43;;;;;;;1.02;0.63;;;;;;;;;;5114889;28;20036;-53
2022/05/16 04:44:58;;;;;;;1.85;0.88;;;;;;;;;;5113147;28;20040;-56
2022/05/16 04:47:26;;;;;;;0.90;0.57;;;;;;;;;;5114645;28;20043;-56
2022/05/16 04:49:53;;;;;;;1.23;0.65;;;;;;;;;;5114753;28;20534;-54
2022/05/16 04:52:21;;;;;;;0.80;0.60;;;;;;;;;;5114396;28;20032;-55
2022/05/16 04:54:48;;;;;;;0.80;0.50;;;;;;;;;;5114442;28;20038;-55
2022/05/16 04:57:16;;;;;;;0.52;0.40;;;;;;;;;;5114723;28;20048;-53
2022/05/16 04:59:47;;;;;;;0.60;0.50;;;;;;;;;;5114694;28;20042;-55
2022/05/16 05:02:14;;;;;;;0.50;0.50;;;;;;;;;;5114425;28;20078;-55
2022/05/16 05:04:42;;;;;;;0.80;0.60;;;;;;;;;;5114561;28;20036;-55
2022/05/16 05:07:09;;;;;;;0.95;0.65;;;;;;;;;;5114358;28;20039;-55
2022/05/16 05:15:11;;;;;;;0.60;0.60;;;;;;;;;;5114111;28;20122;-56
2022/05/16 05:17:39;;;;;;;1.55;0.60;;;;;;;;;;5114189;28;20132;-55
2022/05/16 05:20:13;;;;;;;20.15;11.52;;;;;;;;;;5112982;28;20054;-57
2022/05/16 05:22:45;;;;;;;5.25;2.65;;;;;;;;;;5114465;28;20039;-55
2022/05/16 05:25:15;;;;;;;1.27;0.70;;;;;;;;;;5114101;27;20409;-55
2022/05/16 05:27:45;;;;;;;0.60;0.50;;;;;;;;;;5113917;28;20090;-53
2022/05/16 05:30:19;;;;;;;1.17;0.52;;;;;;;;;;5114001;28;20046;-54
2022/05/16 05:32:47;;;;;;;1.20;0.68;;;;;;;;;;5113742;28;20047;-56
2022/05/16 05:35:17;;;;;;;0.60;0.57;;;;;;;;;;5113871;28;20039;-57
2022/05/16 05:37:45;;;;;;;0.98;0.57;;;;;;;;;;5112422;28;20044;-52
2022/05/16 05:40:13;;;;;;;0.80;0.60;;;;;;;;;;5114077;28;20028;-54
2022/05/16 05:42:41;;;;;;;0.50;0.50;;;;;;;;;;5113634;28;20517;-54
2022/05/16 05:45:09;;;;;;;2.15;0.50;;;;;;;;;;5114010;28;20036;-53
2022/05/16 05:47:37;;;;;;;0.60;0.50;;;;;;;;;;5113780;28;20035;-56
2022/05/16 05:50:07;;;;;;;0.73;0.70;;;;;;;;;;5113344;28;20040;-53
2022/05/16 05:52:35;;;;;;;0.60;0.60;;;;;;;;;;5113286;28;20067;-56
2022/05/16 05:55:03;;;;;;;1.95;0.73;;;;;;;;;;5113338;27;20077;-57
2022/05/16 05:57:31;;;;;;;0.88;0.60;;;;;;;;;;5113695;28;20406;-53
2022/05/16 06:00:00;;;;;;;0.77;0.60;;;;;;;;;;5113261;28;20031;-53
2022/05/16 06:02:32;;;;;;;0.88;0.77;;;;;;;;;;5113410;28;20048;-54
2022/05/16 06:04:59;;;;;;;1.15;0.70;;;;;;;;;;5113313;28;20111;-55
2022/05/16 06:07:26;;;;;;;1.02;0.75;;;;;;;;;;5112813;28;20066;-54
2022/05/16 06:09:54;;;;;;;1.10;0.63;;;;;;;;;;5113325;28;20556;-54
2022/05/16 06:12:27;;;;;;;12.93;6.95;;;;;;;;;;5113220;28;20035;-52
2022/05/16 06:14:54;;;;;;;30.67;19.15;;;;;;;;;;5112689;28;20456;-54
2022/05/16 06:17:21;;;;;;;2.78;1.58;;;;;;;;;;5112861;28;20414;-52
2022/05/16 06:19:49;;;;;;;1.17;0.90;;;;;;;;;;5112817;28;20036;-53
2022/05/16 06:22:16;;;;;;;1.08;0.70;;;;;;;;;;5112933;28;20040;-51
2022/05/16 06:27:31;;;;;;;1.55;0.70;;;;;;;;;;5112957;28;20067;-54
2022/05/16 06:29:59;;;;;;;0.68;0.63;;;;;;;;;;5112755;28;20444;-52
2022/05/16 06:32:26;;;;;;;0.73;0.73;;;;;;;;;;5112625;28;20070;-55
2022/05/16 06:34:55;;;;;;;1.13;0.80;;;;;;;;;;5112498;28;20047;-50
2022/05/16 06:37:22;;;;;;;0.85;0.80;;;;;;;;;;5112588;27;20070;-52
2022/05/16 06:39:49;;;;;;;1.05;0.95;;;;;;;;;;5112089;28;20039;-54
2022/05/16 06:42:16;;;;;;;2.40;0.80;;;;;;;;;;5112477;28;20043;-53
2022/05/16 06:44:45;;;;;;;1.60;1.00;;;;;;;;;;5112726;28;20043;-54
2022/05/16 06:47:14;;;;;;;1.50;0.90;;;;;;;;;;5112661;28;20054;-51
2022/05/16 06:49:42;;;;;;;1.15;0.80;;;;;;;;;;5112817;28;20096;-54
2022/05/16 06:52:09;;;;;;;1.10;0.75;;;;;;;;;;5112360;28;20073;-53
2022/05/16 06:54:37;;;;;;;1.52;0.70;;;;;;;;;;5112149;28;20470;-52
2022/05/16 06:57:04;;;;;;;0.90;0.73;;;;;;;;;;5112230;28;20109;-51
2022/05/16 06:59:32;;;;;;;1.20;0.82;;;;;;;;;;5111988;28;20494;-49
2022/05/16 07:01:59;;;;;;;1.45;0.80;;;;;;;;;;5111828;28;20097;-54
2022/05/16 07:04:26;;;;;;;1.00;0.77;;;;;;;;;;5112142;28;20108;-54
2022/05/16 07:06:53;;;;;;;0.77;0.70;;;;;;;;;;5111834;28;20093;-53
2022/05/16 07:09:20;;;;;;;2.20;0.85;;;;;;;;;;5112054;28;20059;-52
2022/05/16 07:11:48;;;;;;;1.23;0.90;;;;;;;;;;5112161;28;20043;-51
2022/05/16 07:14:15;;;;;;;1.20;0.80;;;;;;;;;;5111742;28;20502;-55
2022/05/16 07:16:42;;;;;;;1.90;0.98;;;;;;;;;;5112204;28;20046;-52
2022/05/16 07:19:10;;;;;;;1.10;1.00;;;;;;;;;;5112362;28;20070;-56
2022/05/16 07:21:38;;;;;;;26.27;17.50;;;;;;;;;;5111998;28;20498;-53
2022/05/16 07:24:08;;;;;;;1.92;1.08;;;;;;;;;;5111921;28;20032;-54
2022/05/16 07:29:22;;;;;;;1.38;0.70;;;;;;;;;;5111590;28;20051;-47
2022/05/16 07:31:51;;;;;;;1.45;0.95;;;;;;;;;;5111804;28;20035;-53
2022/05/16 07:34:18;;;;;;;1.02;0.70;;;;;;;;;;5111582;28;20457;-55
2022/05/16 07:36:45;;;;;;;1.02;0.90;;;;;;;;;;5110893;28;20044;-52
2022/05/16 07:39:13;;;;;;;1.00;0.90;;;;;;;;;;5111830;28;20044;-55
2022/05/16 07:41:40;;;;;;;0.93;0.90;;;;;;;;;;5111831;28;20042;-54
2022/05/16 07:44:07;;;;;;;1.05;0.77;;;;;;;;;;5110362;28;20097;-54
2022/05/16 07:46:34;;;;;;;1.10;0.90;;;;;;;;;;5111545;28;20035;-52
2022/05/16 07:49:02;;;;;;;1.60;0.98;;;;;;;;;;5111762;28;20063;-50
2022/05/16 07:51:29;;;;;;;0.68;0.60;;;;;;;;;;5111572;28;20066;-50
2022/05/16 07:53:57;;;;;;;1.25;1.00;;;;;;;;;;5111564;28;20093;-52
2022/05/16 07:56:24;;;;;;;1.58;0.98;;;;;;;;;;5111651;28;20440;-55
2022/05/16 07:58:51;;;;;;;1.25;0.95;;;;;;;;;;5111368;28;20036;-52
2022/05/16 08:01:18;;;;;;;2.35;0.93;;;;;;;;;;5111619;28;20064;-53
2022/05/16 08:03:45;;;;;;;1.77;1.15;;;;;;;;;;5111445;28;20093;-51
2022/05/16 08:06:13;;;;;;;2.60;0.90;;;;;;;;;;5111641;28;20051;-52
2022/05/16 08:11:26;;;;;;;1.85;0.90;;;;;;;;;;5111557;28;20039;-53
2022/05/16 08:13:53;;;;;;;1.00;0.90;;;;;;;;;;5111084;28;20051;-52
2022/05/16 08:16:20;;;;;;;0.93;0.80;;;;;;;;;;5111462;28;20035;-54
2022/05/16 08:18:51;;;;;;;0.90;0.80;;;;;;;;;;5109943;28;20448;-55
2022/05/16 08:21:18;;;;;;;1.05;0.93;;;;;;;;;;5111394;28;20046;-55
2022/05/16 08:23:45;;;;;;;1.40;0.80;;;;;;;;;;5111207;28;20074;-54
2022/05/16 08:26:12;;;;;;;1.33;0.88;;;;;;;;;;5111558;28;20044;-55
2022/05/16 08:28:40;;;;;;;0.98;0.70;;;;;;;;;;5111102;28;20032;-53
2022/05/16 08:31:07;;;;;;;1.20;0.82;;;;;;;;;;5111522;28;20039;-53
2022/05/16 08:33:37;;;;;;;1.65;1.08;;;;;;;;;;5111235;28;20142;-52
2022/05/16 08:41:53;;;;;;;0.70;0.70;;;;;;;;;;5110703;28;20040;-53
2022/05/16 08:44:45;;;;;;;0.90;0.68;;;;;;;;;;5111353;28;20046;-53
2022/05/16 08:47:57;;;;;;;1.10;0.68;;;;;;;;;;5113124;28;20048;-52
2022/05/16 08:50:47;;;;;;;1.23;0.70;;;;;;;;;;5113115;28;20066;-52
2022/05/16 08:53:28;;;;;;;1.35;0.68;;;;;;;;;;5114811;28;20154;-52
2022/05/16 08:56:02;;;;;;;1.08;0.60;;;;;;;;;;5114331;28;20048;-54
2022/05/16 08:58:34;;;;;;;2.00;0.50;;;;;;;;;;5113302;28;20386;-54
2022/05/16 09:01:12;;;;;;;0.60;0.60;;;;;;;;;;5114623;28;20526;-54
2022/05/16 09:03:48;;;;;;;1.45;1.13;;;;;;;;;;5114731;28;20046;-53
2022/05/16 09:06:24;;;;;;;106.63;61.35;;;;;;;;;;5114641;28;20044;-54
2022/05/16 09:09:10;;;;;;;11.23;6.95;;;;;;;;;;5114174;28;20039;-57
2022/05/16 09:11:49;;;;;;;1.17;0.70;;;;;;;;;;5114395;28;20386;-53
2022/05/16 09:14:19;;;;;;;0.50;0.50;;;;;;;;;;5114089;28;20056;-56
2022/05/16 09:16:58;;;;;;;1.40;0.50;;;;;;;;;;5114185;28;20131;-50
2022/05/16 09:19:42;;;;;;;0.40;0.40;;;;;;;;;;5114155;28;20399;-55
2022/05/16 09:22:18;;;;;;;1.25;0.85;;;;;;;;;;5114067;28;20042;-53
2022/05/16 09:25:04;;;;;;;1.15;0.80;;;;;;;;;;5114356;28;20035;-50
2022/05/16 09:30:28;;;;;;;0.30;0.30;;;;;;;;;;5114114;28;20047;-54
2022/05/16 09:33:04;;;;;;;0.70;0.45;;;;;;;;;;5113742;28;20060;-54
2022/05/16 09:35:44;;;;;;;0.40;0.40;;;;;;;;;;5113940;28;20547;-55
2022/05/16 09:38:11;;;;;;;0.30;0.30;;;;;;;;;;5113718;28;20100;-48
2022/05/16 09:40:45;;;;;;;0.40;0.40;;;;;;;;;;5113855;28;20044;-54
2022/05/16 09:43:20;;;;;;;0.60;0.60;;;;;;;;;;5113633;28;20551;-52
2022/05/16 09:46:00;;;;;;;0.57;0.47;;;;;;;;;;5113614;28;20046;-50
2022/05/16 09:48:28;;;;;;;0.73;0.43;;;;;;;;;;5113548;28;20038;-52
2022/05/16 09:51:01;;;;;;;0.55;0.47;;;;;;;;;;5113792;28;20398;-53
2022/05/16 09:53:32;;;;;;;1.38;0.47;;;;;;;;;;5113722;28;20043;-56
2022/05/16 09:56:21;;;;;;;1.58;0.85;;;;;;;;;;5113370;28;20031;-52
2022/05/16 09:59:00;;;;;;;0.60;0.60;;;;;;;;;;5112422;28;20040;-54
2022/05/16 10:01:42;;;;;;;0.60;0.40;;;;;;;;;;5113221;28;20039;-54
2022/05/16 10:04:15;;;;;;;0.45;0.32;;;;;;;;;;5113310;27;20122;-55
2022/05/16 10:06:54;;;;;;;;;;;;;;;;;;5113954;28;20043;-53
2022/05/16 10:09:28;;;;;;;0.60;0.50;;;;;;;;;;5113394;27;20002;-53
2022/05/16 10:11:57;;;;;;;0.40;0.40;;;;;;;;;;5113296;28;20444;-52
2022/05/16 10:14:24;;;;;;;0.50;0.50;;;;;;;;;;5112827;28;20059;-51
2022/05/16 10:16:53;;;;;;;1.25;0.98;;;;;;;;;;5112959;28;20050;-53
2022/05/16 10:19:24;;;;;;;0.50;0.43;;;;;;;;;;5112898;27;20383;-55
2022/05/16 10:22:05;;;;;;;1.40;0.77;;;;;;;;;;5112897;28;20101;-53
2022/05/16 10:24:38;;;;;;;0.55;0.30;;;;;;;;;;5113138;28;20063;-55
2022/05/16 10:27:11;;;;;;;35.08;17.20;;;;;;;;;;5112137;28;20150;-54
2022/05/16 10:29:42;;;;;;;2.55;0.50;;;;;;;;;;5112789;28;20043;-69
2022/05/16 10:35:15;;;;;;;0.50;0.30;;;;;;;;;;5112765;28;20043;-69
2022/05/16 10:37:44;;;;;;;2.15;0.30;;;;;;;;;;5111772;28;20039;-60
2022/05/16 10:40:33;;;;;;;0.90;0.65;;;;;;;;;;5112868;28;20123;-61
2022/05/16 10:43:49;;;;;;;0.32;0.30;;;;;;;;;;5112779;28;20096;-61
2022/05/16 10:46:19;;;;;;;0.30;0.30;;;;;;;;;;5099332;28;20086;-59
2022/05/16 10:48:58;;;;;;;2.95;0.32;;;;;;;;;;5112261;28;20040;-58
2022/05/16 10:51:47;;;;;;;1.80;1.00;;;;;;;;;;5112378;28;20387;-59
2022/05/16 10:54:18;;;;;;;2.10;1.15;;;;;;;;;;5112383;28;20118;-60
2022/05/16 10:57:07;;;;;;;1.10;0.70;;;;;;;;;;5112403;28;20038;-60
2022/05/16 11:00:06;;;;;;;0.35;0.30;;;;;;;;;;5112229;28;20394;-60
2022/05/16 11:02:55;;;;;;;0.98;0.40;;;;;;;;;;5112304;28;20035;-66
2022/05/16 11:05:38;;;;;;;1.35;0.90;;;;;;;;;;5112118;28;20036;-60
2022/05/16 11:08:18;;;;;;;0.30;0.30;;;;;;;;;;5111825;28;20040;-60
2022/05/16 11:10:58;;;;;;;0.32;0.30;;;;;;;;;;5111404;28;20058;-61
2022/05/16 11:14:02;;;;;;;0.43;0.40;;;;;;;;;;5101816;28;20636;-61
2022/05/16 11:16:38;;;;;;;0.65;0.40;;;;;;;;;;5112044;28;20093;-59
2022/05/16 11:19:23;;;;;;;1.15;0.40;;;;;;;;;;5112047;28;20090;-61
2022/05/16 11:21:59;;;;;;;0.35;0.30;;;;;;;;;;5111934;28;20036;-61
2022/05/16 11:24:44;;;;;;;0.65;0.40;;;;;;;;;;5111735;28;20040;-59
2022/05/16 11:27:55;;;;;;;37.47;21.08;;;;;;;;;;5111979;28;20067;-64
2022/05/16 11:30:54;;;;;;;1.15;0.50;;;;;;;;;;5091234;28;20036;-63
2022/05/16 11:33:51;;;;;;;2.88;0.52;;;;;;;;;;5091129;28;20036;-62
2022/05/16 11:36:40;;;;;;;30.02;14.20;;;;;;;;;;5091247;28;20047;-61
2022/05/16 11:39:15;;;;;;;1.70;0.88;;;;;;;;;;5091355;28;20036;-61
2022/05/16 11:41:55;;;;;;;0.88;0.45;;;;;;;;;;5091544;28;20040;-62
2022/05/16 11:44:37;;;;;;;0.43;0.30;;;;;;;;;;5089962;28;20457;-60
2022/05/16 11:47:22;;;;;;;0.52;0.40;;;;;;;;;;5089925;28;20114;-59
2022/05/16 11:50:39;;;;;;;0.65;0.50;;;;;;;;;;5091170;28;20039;-59
2022/05/16 11:53:40;;;;;;;0.35;0.30;;;;;;;;;;5091127;28;20109;-59
2022/05/16 12:02:19;;;;;;;0.68;0.40;;;;;;;;;;5090730;28;20109;-62
2022/05/16 12:04:53;;;;;;;0.40;0.40;;;;;;;;;;5089923;28;20048;-61
2022/05/16 12:07:52;;;;;;;1.10;0.40;;;;;;;;;;5091075;28;20040;-59
2022/05/16 12:10:26;;;;;;;0.28;0.20;;;;;;;;;;5090887;28;20032;-62
2022/05/16 12:13:17;;;;;;;0.40;0.40;;;;;;;;;;5090908;28;20394;-62
2022/05/16 12:15:46;;;;;;;1.27;0.50;;;;;;;;;;5089804;28;20040;-61
2022/05/16 12:18:40;;;;;;;1.02;0.40;;;;;;;;;;5090993;28;20044;-61
2022/05/16 12:21:19;;;;;;;0.50;0.30;;;;;;;;;;5091160;28;20040;-58
2022/05/16 12:23:49;;;;;;;0.50;0.30;;;;;;;;;;5094915;28;20046;-59
2022/05/16 12:26:44;;;;;;;3.25;0.77;;;;;;;;;;5094824;28;20048;-59
2022/05/16 12:29:18;;;;;;;2.42;1.05;;;;;;;;;;5082435;28;20047;-60
2022/05/16 12:31:48;;;;;;;0.35;0.22;;;;;;;;;;5115256;28;20397;-61
2022/05/16 12:34:33;;;;;;;0.73;0.40;;;;;;;;;;5115270;28;20035;-57
2022/05/16 12:37:05;;;;;;;0.65;0.30;;;;;;;;;;5114928;28;20067;-61
2022/05/16 12:40:00;;;;;;;0.80;0.40;;;;;;;;;;5115053;28;20034;-61
2022/05/16 12:42:46;;;;;;;0.75;0.35;;;;;;;;;;5114831;28;20490;-63
2022/05/16 12:45:24;;;;;;;0.75;0.38;;;;;;;;;;5115111;28;20122;-62
2022/05/16 12:47:54;;;;;;;0.50;0.30;;;;;;;;;;5114797;28;20071;-61
2022/05/16 12:50:37;;;;;;;0.40;0.40;;;;;;;;;;5114435;28;20060;-62
2022/05/16 12:53:29;;;;;;;2.42;0.40;;;;;;;;;;5114616;28;20498;-62
2022/05/16 12:56:07;;;;;;;1.75;0.40;;;;;;;;;;5114490;28;20054;-62
2022/05/16 12:58:48;;;;;;;0.60;0.30;;;;;;;;;;5114578;28;20043;-61
2022/05/16 13:01:23;;;;;;;0.65;0.35;;;;;;;;;;5096834;28;20441;-62
2022/05/16 13:04:06;;;;;;;0.40;0.30;;;;;;;;;;5114415;28;20040;-62
2022/05/16 13:07:09;;;;;;;0.38;0.38;;;;;;;;;;5114164;28;20048;-64
2022/05/16 13:09:52;;;;;;;0.35;0.35;;;;;;;;;;5094254;28;20051;-63
2022/05/16 13:12:41;;;;;;;0.30;0.30;;;;;;;;;;5114404;28;20050;-60
2022/05/16 13:15:24;;;;;;;2.55;0.77;;;;;;;;;;5114326;28;20093;-61
2022/05/16 13:17:57;;;;;;;0.20;0.20;;;;;;;;;;5114334;28;20051;-62
2022/05/16 13:20:37;;;;;;;2.30;0.20;;;;;;;;;;5114308;28;20085;-61
2022/05/16 13:23:05;;;;;;;0.30;0.30;;;;;;;;;;5114025;28;20058;-62
2022/05/16 13:29:21;;;;;;;0.30;0.30;;;;;;;;;;5114195;28;20119;-62
2022/05/16 13:31:07;;;;;;;0.35;0.30;;;;;;;;;;5114155;28;20046;-63
2022/05/16 13:33:38;;;;;;;1.00;0.30;;;;;;;;;;5112686;28;20031;-63
2022/05/16 13:36:18;;;;;;;0.22;0.22;;;;;;;;;;5113918;28;20498;-61
2022/05/16 13:38:58;;;;;;;1.73;0.30;;;;;;;;;;5113890;28;20063;-63
2022/05/16 13:41:29;;;;;;;0.50;0.50;;;;;;;;;;5113797;28;20460;-62
2022/05/16 13:43:58;;;;;;;0.30;0.22;;;;;;;;;;5113644;28;20044;-59
2022/05/16 13:46:29;;;;;;;0.30;0.30;;;;;;;;;;5113596;28;20040;-60
2022/05/16 13:49:04;;;;;;;3.03;0.57;;;;;;;;;;5113962;28;20486;-63
2022/05/16 13:51:35;;;;;;;0.35;0.20;;;;;;;;;;5113550;28;20516;-63
2022/05/16 13:54:06;;;;;;;0.30;0.28;;;;;;;;;;5113234;28;20494;-58
2022/05/16 13:56:39;;;;;;;0.38;0.20;;;;;;;;;;5112980;28;20481;-57
2022/05/16 13:59:07;;;;;;;0.30;0.30;;;;;;;;;;5113351;28;20058;-59
2022/05/16 14:01:34;;;;;;;0.45;0.30;;;;;;;;;;5113404;28;20600;-58
2022/05/16 14:04:06;;;;;;;0.30;0.20;;;;;;;;;;5113235;28;20048;-59
2022/05/16 14:06:42;;;;;;;70.68;33.03;;;;;;;;;;5113211;28;20039;-56
2022/05/16 14:09:19;;;;;;;0.77;0.50;;;;;;;;;;5113259;28;20491;-55
2022/05/16 14:11:48;;;;;;;0.30;0.30;;;;;;;;;;5094925;28;20044;-59
2022/05/16 14:14:19;;;;;;;1.88;0.30;;;;;;;;;;5113317;28;20071;-57
2022/05/16 14:16:54;;;;;;;0.57;0.30;;;;;;;;;;5112920;28;20039;-58
2022/05/16 14:19:45;;;;;;;0.60;0.40;;;;;;;;;;5112812;28;20604;-59
2022/05/16 14:22:24;;;;;;;0.35;0.22;;;;;;;;;;5113066;28;20498;-64
2022/05/16 14:25:04;;;;;;;0.77;0.40;;;;;;;;;;5113067;28;20047;-64
2022/05/16 14:27:40;;;;;;;0.40;0.30;;;;;;;;;;5112773;28;20082;-62
2022/05/16 14:30:20;;;;;;;0.28;0.25;;;;;;;;;;5112698;28;20563;-62
2022/05/16 14:33:03;;;;;;;5.85;1.00;;;;;;;;;;5112748;28;20047;-64
2022/05/16 14:35:31;;;;;;;0.45;0.30;;;;;;;;;;5110672;28;20047;-61
2022/05/16 14:38:05;;;;;;;0.65;0.30;;;;;;;;;;5112337;28;20036;-63
2022/05/16 14:40:51;;;;;;;0.30;0.20;;;;;;;;;;5112801;28;20066;-59
2022/05/16 14:43:37;;;;;;;1.92;0.52;;;;;;;;;;5112682;28;20101;-60
2022/05/16 14:49:00;;;;;;;0.75;0.30;;;;;;;;;;5112439;28;20040;-58
2022/05/16 14:51:29;;;;;;;2.78;0.40;;;;;;;;;;5112567;28;20440;-60
2022/05/16 14:53:57;;;;;;;0.32;0.30;;;;;;;;;;5112217;28;20467;-62
2022/05/16 14:56:36;;;;;;;0.40;0.40;;;;;;;;;;5112159;28;20506;-60
2022/05/16 14:59:06;;;;;;;0.90;0.40;;;;;;;;;;5112294;28;20044;-60
2022/05/16 15:04:20;;;;;;;3.40;0.80;;;;;;;;;;5112211;28;20509;-58
2022/05/16 15:06:49;;;;;;;0.32;0.30;;;;;;;;;;5112459;28;20090;-61
2022/05/16 15:09:20;;;;;;;1.20;0.70;;;;;;;;;;5111994;28;20093;-59
2022/05/16 15:11:51;;;;;;;0.43;0.40;;;;;;;;;;5112320;28;20032;-63
2022/05/16 15:14:23;;;;;;;1.15;0.40;;;;;;;;;;5111681;28;20072;-65
2022/05/16 15:16:51;;;;;;;0.40;0.30;;;;;;;;;;5111894;28;20403;-60
2022/05/16 15:19:19;;;;;;;0.20;0.20;;;;;;;;;;5111982;28;20522;-59
2022/05/16 15:21:48;;;;;;;0.55;0.32;;;;;;;;;;5112156;28;20047;-59
2022/05/16 15:24:28;;;;;;;0.50;0.40;;;;;;;;;;5112297;28;20444;-59
2022/05/16 15:27:12;;;;;;;0.60;0.43;;;;;;;;;;5112082;28;20074;-59
2022/05/16 15:29:39;;;;;;;0.55;0.30;;;;;;;;;;5111549;28;20046;-58
2022/05/16 15:32:09;;;;;;;0.20;0.20;;;;;;;;;;5111205;28;20039;-59
2022/05/16 15:34:37;;;;;;;0.68;0.30;;;;;;;;;;5111828;28;20100;-54
2022/05/16 15:37:12;;;;;;;0.82;0.30;;;;;;;;;;5111530;28;20048;-58
2022/05/16 15:39:40;;;;;;;0.50;0.40;;;;;;;;;;5111646;28;20119;-59
2022/05/16 15:42:10;;;;;;;1.33;0.30;;;;;;;;;;5111791;28;20040;-58
2022/05/16 15:44:39;;;;;;;0.30;0.30;;;;;;;;;;5111396;28;20044;-59
2022/05/16 15:47:14;;;;;;;0.55;0.38;;;;;;;;;;5111606;28;20043;-60
2022/05/16 15:49:46;;;;;;;0.30;0.30;;;;;;;;;;5111534;28;20044;-58
2022/05/16 15:52:18;;;;;;;0.20;0.20;;;;;;;;;;5111357;28;20047;-65
2022/05/16 15:54:47;;;;;;;0.30;0.30;;;;;;;;;;5110923;28;20039;-66
2022/05/16 15:57:14;;;;;;;3.35;1.67;;;;;;;;;;5113730;28;20104;-64
2022/05/16 15:59:42;;;;;;;0.73;0.65;;;;;;;;;;5116010;28;20036;-64
2022/05/16 16:02:33;;;;;;;3.75;2.15;;;;;;;;;;5115766;28;20032;-62
2022/05/16 16:10:34;;;;;;;0.45;0.30;;;;;;;;;;5097558;28;20498;-60
2022/05/16 16:13:19;;;;;;;0.30;0.30;;;;;;;;;;5116008;28;20084;-65